createdAt,value
2024-05-09T00:02:09.264Z,102519.94
2024-05-09T00:04:36.029Z,102524.41
2024-05-09T00:07:02.830Z,102525.31
2024-05-09T00:09:29.511Z,102527.97
2024-05-09T00:11:56.245Z,102534.19
2024-05-09T00:14:23.048Z,102518.19
2024-05-09T00:16:49.875Z,102528.88
2024-05-09T00:19:16.689Z,102525.28
2024-05-09T00:21:43.514Z,102529.72
2024-05-09T00:24:10.297Z,102533.31
2024-05-09T00:26:36.994Z,102528.88
2024-05-09T00:29:03.692Z,102529.75
2024-05-09T00:31:30.363Z,102517.28
2024-05-09T00:33:57.194Z,102520.84
2024-05-09T00:36:24.051Z,102515.53
2024-05-09T00:38:50.699Z,102496.00
2024-05-09T00:41:19.651Z,102502.19
2024-05-09T00:43:46.697Z,102510.19
2024-05-09T00:46:13.499Z,102504.00
2024-05-09T00:48:40.349Z,102515.53
2024-05-09T00:51:07.168Z,102514.69
2024-05-09T00:53:33.981Z,102512.88
2024-05-09T00:56:00.802Z,102511.13
2024-05-09T00:58:27.895Z,102504.91
2024-05-09T01:00:54.604Z,102503.09
2024-05-09T01:03:21.720Z,102505.75
2024-05-09T01:05:48.793Z,102504.91
2024-05-09T01:08:15.508Z,102511.13
2024-05-09T01:10:44.876Z,102510.25
2024-05-09T01:13:13.059Z,102498.66
2024-05-09T01:15:39.770Z,102506.69
2024-05-09T01:18:11.054Z,102504.91
2024-05-09T01:20:42.450Z,102507.56
2024-05-09T01:23:11.965Z,102504.03
2024-05-09T01:25:39.356Z,102508.47
2024-05-09T01:28:06.314Z,102504.00
2024-05-09T01:30:35.819Z,102518.22
2024-05-09T01:33:09.306Z,102505.78
2024-05-09T01:35:37.811Z,102511.09
2024-05-09T01:38:05.137Z,102498.69
2024-05-09T01:40:37.580Z,102505.78
2024-05-09T01:43:10.945Z,102501.34
2024-05-09T01:45:41.763Z,102503.13
2024-05-09T01:48:09.070Z,102494.25
2024-05-09T01:50:40.079Z,102498.69
2024-05-09T01:53:09.980Z,102496.91
2024-05-09T01:55:36.873Z,102499.59
2024-05-09T01:58:03.682Z,102489.78
2024-05-09T02:00:38.173Z,102494.22
2024-05-09T02:03:10.178Z,102497.78
2024-05-09T02:05:37.886Z,102496.91
2024-05-09T02:08:05.732Z,102499.56
2024-05-09T02:10:33.401Z,102496.00
2024-05-09T02:13:00.627Z,102496.00
2024-05-09T02:15:27.328Z,102495.13
2024-05-09T02:17:54.143Z,102494.22
2024-05-09T02:20:30.202Z,102500.44
2024-05-09T02:23:02.690Z,102494.22
2024-05-09T02:25:30.104Z,102496.00
2024-05-09T02:27:56.777Z,102494.19
2024-05-09T02:30:30.729Z,102503.09
2024-05-09T02:33:05.695Z,102496.00
2024-05-09T02:35:32.555Z,102492.44
2024-05-09T02:37:59.285Z,102498.66
2024-05-09T02:40:35.044Z,102490.66
2024-05-09T02:43:04.389Z,102490.63
2024-05-09T02:45:31.106Z,102489.72
2024-05-09T02:47:58.015Z,102491.53
2024-05-09T02:50:33.514Z,102495.06
2024-05-09T02:53:04.996Z,102486.16
2024-05-09T02:55:31.824Z,102481.72
2024-05-09T02:57:58.490Z,102491.50
2024-05-09T03:00:34.299Z,102489.66
2024-05-09T03:03:06.773Z,102488.81
2024-05-09T03:05:33.723Z,102485.28
2024-05-09T03:08:00.498Z,102491.47
2024-05-09T03:10:29.163Z,102481.72
2024-05-09T03:13:06.176Z,102493.28
2024-05-09T03:15:33.158Z,102484.38
2024-05-09T03:18:00.519Z,102491.50
2024-05-09T03:20:33.104Z,102491.44
2024-05-09T03:23:02.134Z,102486.13
2024-05-09T03:25:28.922Z,102487.91
2024-05-09T03:27:55.752Z,102482.59
2024-05-09T03:30:30.686Z,102490.56
2024-05-09T03:33:06.182Z,102487.00
2024-05-09T03:35:32.921Z,102479.94
2024-05-09T03:37:59.694Z,102482.56
2024-05-09T03:40:29.055Z,102482.56
2024-05-09T03:42:57.352Z,102482.56
2024-05-09T03:45:23.981Z,102479.94
2024-05-09T03:47:50.916Z,102482.59
2024-05-09T03:50:22.891Z,102483.47
2024-05-09T03:52:56.617Z,102481.69
2024-05-09T03:55:23.336Z,102486.09
2024-05-09T03:57:50.004Z,102482.50
2024-05-09T04:00:22.533Z,102487.88
2024-05-09T04:02:58.961Z,102483.44
2024-05-09T04:05:25.763Z,102479.00
2024-05-09T04:07:52.462Z,102476.34
2024-05-09T04:10:27.695Z,102485.19
2024-05-09T04:12:59.199Z,102479.00
2024-05-09T04:15:25.881Z,102486.13
2024-05-09T04:17:52.754Z,102484.34
2024-05-09T04:20:29.202Z,102482.56
2024-05-09T04:23:03.844Z,102479.88
2024-05-09T04:25:31.975Z,102487.91
2024-05-09T04:27:58.678Z,102477.25
2024-05-09T04:30:34.598Z,102482.59
2024-05-09T04:33:05.855Z,102484.38
2024-05-09T04:35:32.896Z,102484.41
2024-05-09T04:37:59.684Z,102479.09
2024-05-09T04:40:33.077Z,102478.19
2024-05-09T04:43:02.925Z,102478.22
2024-05-09T04:45:29.623Z,102486.25
2024-05-09T04:47:56.534Z,102485.34
2024-05-09T04:50:30.392Z,102487.13
2024-05-09T04:53:03.385Z,102492.44
2024-05-09T04:55:30.254Z,102494.25
2024-05-09T04:57:57.013Z,102493.38
2024-05-09T05:00:32.435Z,102494.25
2024-05-09T05:03:04.805Z,102493.38
2024-05-09T05:05:31.770Z,102489.81
2024-05-09T05:07:58.479Z,102496.03
2024-05-09T05:10:33.223Z,102496.03
2024-05-09T05:13:02.614Z,102495.13
2024-05-09T05:15:29.285Z,102494.22
2024-05-09T05:17:56.476Z,102492.41
2024-05-09T05:20:30.691Z,102490.56
2024-05-09T05:23:00.227Z,102486.09
2024-05-09T05:25:26.998Z,102479.78
2024-05-09T05:27:53.643Z,102485.97
2024-05-09T05:30:25.243Z,102495.66
2024-05-09T05:32:56.019Z,102486.66
2024-05-09T05:35:22.893Z,102494.63
2024-05-09T05:37:49.634Z,102489.22
2024-05-09T05:40:25.368Z,102494.47
2024-05-09T05:42:59.592Z,102484.72
2024-05-09T05:45:26.355Z,102494.47
2024-05-09T05:47:53.926Z,102493.56
2024-05-09T05:50:27.667Z,102486.44
2024-05-09T05:53:01.289Z,102493.50
2024-05-09T05:55:27.992Z,102489.00
2024-05-09T05:57:54.693Z,102498.75
2024-05-09T06:00:29.114Z,102496.06
2024-05-09T06:03:02.138Z,102492.41
2024-05-09T06:05:29.117Z,102489.66
2024-05-09T06:07:55.946Z,102497.66
2024-05-09T06:10:29.580Z,102495.78
2024-05-09T06:13:01.643Z,102482.38
2024-05-09T06:15:28.362Z,102483.22
2024-05-09T06:17:55.286Z,102484.09
2024-05-09T06:20:31.543Z,102476.06
2024-05-09T06:23:02.568Z,102485.06
2024-05-09T06:25:29.292Z,102479.81
2024-05-09T06:27:55.979Z,102484.22
2024-05-09T06:30:30.043Z,102472.56
2024-05-09T06:33:07.224Z,102470.69
2024-05-09T06:35:34.366Z,102475.06
2024-05-09T06:38:01.632Z,102476.81
2024-05-09T06:40:36.450Z,102470.47
2024-05-09T06:43:10.336Z,102479.25
2024-05-09T06:45:37.157Z,102486.38
2024-05-09T06:48:04.414Z,102488.06
2024-05-09T06:50:37.040Z,102480.97
2024-05-09T06:53:05.335Z,102492.56
2024-05-09T06:55:32.102Z,102487.19
2024-05-09T06:57:58.807Z,102484.41
2024-05-09T07:00:34.455Z,102489.72
2024-05-09T07:03:17.737Z,102485.25
2024-05-09T07:05:48.342Z,102489.53
2024-05-09T07:08:16.237Z,102482.28
2024-05-09T07:10:43.275Z,102492.91
2024-05-09T07:13:13.677Z,102488.38
2024-05-09T07:15:41.355Z,102490.91
2024-05-09T07:18:12.166Z,102499.69
2024-05-09T07:20:40.120Z,102492.50
2024-05-09T07:23:10.048Z,102496.09
2024-05-09T07:25:42.503Z,102496.88
2024-05-09T07:28:18.617Z,102489.69
2024-05-09T07:30:45.417Z,102493.22
2024-05-09T07:33:22.622Z,102494.03
2024-05-09T07:35:50.643Z,102488.59
2024-05-09T07:38:17.445Z,102483.13
2024-05-09T07:40:44.298Z,102491.06
2024-05-09T07:43:10.957Z,102485.47
2024-05-09T07:45:48.367Z,102486.16
2024-05-09T07:53:38.466Z,102481.94
2024-05-09T07:56:06.788Z,102483.53
2024-05-09T07:58:33.627Z,102478.88
2024-05-09T08:01:00.393Z,102478.72
2024-05-09T08:03:27.188Z,102474.31
2024-05-09T08:05:54.017Z,102477.88
2024-05-09T08:08:20.736Z,102480.47
2024-05-09T08:10:47.649Z,102483.13
2024-05-09T08:13:14.495Z,102473.94
2024-05-09T08:15:41.440Z,102471.06
2024-05-09T08:18:08.996Z,102474.47
2024-05-09T08:20:39.025Z,102469.91
2024-05-09T08:23:05.834Z,102468.81
2024-05-09T08:25:32.562Z,102473.09
2024-05-09T08:27:59.290Z,102465.84
2024-05-09T08:30:32.873Z,102471.03
2024-05-09T08:33:03.918Z,102467.31
2024-05-09T08:35:30.708Z,102460.94
2024-05-09T08:37:57.480Z,102457.09
2024-05-09T08:40:30.981Z,102459.50
2024-05-09T08:43:01.963Z,102462.66
2024-05-09T08:45:28.700Z,102444.34
2024-05-09T08:47:55.555Z,102447.56
2024-05-09T08:50:31.702Z,102452.59
2024-05-09T08:53:04.742Z,102455.00
2024-05-09T08:55:31.399Z,102456.44
2024-05-09T08:57:58.465Z,102451.50
2024-05-09T09:00:33.862Z,102452.81
2024-05-09T09:03:04.054Z,102464.63
2024-05-09T09:05:31.258Z,102466.81
2024-05-09T09:07:58.263Z,102464.41
2024-05-09T09:10:31.062Z,102462.94
2024-05-09T09:13:00.994Z,102460.75
2024-05-09T09:15:27.831Z,102456.94
2024-05-09T09:17:59.803Z,102457.38
2024-05-09T09:20:34.122Z,102445.09
2024-05-09T09:23:03.644Z,102444.34
2024-05-09T09:25:30.436Z,102448.44
2024-05-09T09:27:58.228Z,102446.84
2024-05-09T09:30:34.985Z,102442.66
2024-05-09T09:33:05.359Z,102441.53
2024-05-09T09:35:32.422Z,102441.69
2024-05-09T09:38:01.922Z,102445.94
2024-05-09T09:40:40.397Z,102444.34
2024-05-09T09:43:14.132Z,102443.19
2024-05-09T09:45:41.767Z,102448.69
2024-05-09T09:48:08.801Z,102434.28
2024-05-09T09:50:35.674Z,102441.09
2024-05-09T09:53:03.787Z,102439.88
2024-05-09T09:55:31.183Z,102437.13
2024-05-09T09:57:57.935Z,102432.97
2024-05-09T10:00:30.556Z,102429.69
2024-05-09T10:03:00.124Z,102424.41
2024-05-09T10:05:27.154Z,102421.44
2024-05-09T10:07:54.129Z,102414.94
2024-05-09T10:10:31.443Z,102421.13
2024-05-09T10:13:09.084Z,102416.78
2024-05-09T10:15:46.003Z,102417.22
2024-05-09T10:18:13.507Z,102423.88
2024-05-09T10:20:43.723Z,102416.56
2024-05-09T10:23:26.414Z,102408.81
2024-05-09T10:26:00.174Z,102414.63
2024-05-09T10:28:33.228Z,102415.50
2024-05-09T10:31:06.490Z,102413.50
2024-05-09T10:33:38.893Z,102410.44
2024-05-09T10:36:18.526Z,102404.53
2024-05-09T10:38:45.199Z,102411.72
2024-05-09T10:41:11.937Z,102406.09
2024-05-09T10:43:39.090Z,102396.78
2024-05-09T10:46:05.864Z,102396.97
2024-05-09T10:48:32.662Z,102397.06
2024-05-09T10:50:59.489Z,102394.91
2024-05-09T10:53:26.130Z,102393.19
2024-05-09T10:55:59.235Z,102392.06
2024-05-09T10:58:26.290Z,102395.47
2024-05-09T11:00:57.574Z,102385.28
2024-05-09T11:03:24.691Z,102384.34
2024-05-09T11:05:55.121Z,102372.00
2024-05-09T11:08:22.346Z,102382.19
2024-05-09T11:10:53.025Z,102377.19
2024-05-09T11:13:35.918Z,102368.97
2024-05-09T11:16:02.969Z,102373.44
2024-05-09T11:18:34.676Z,102370.47
2024-05-09T11:21:03.708Z,102366.38
2024-05-09T11:23:30.808Z,102366.84
2024-05-09T11:25:58.238Z,102368.44
2024-05-09T11:28:26.418Z,102361.69
2024-05-09T11:30:53.247Z,102366.16
2024-05-09T11:33:20.025Z,102353.66
2024-05-09T11:35:46.838Z,102361.34
2024-05-09T11:38:13.653Z,102369.00
2024-05-09T11:40:40.530Z,102348.47
2024-05-09T11:43:07.619Z,102360.97
2024-05-09T11:45:34.455Z,102350.69
2024-05-09T11:48:01.392Z,102335.91
2024-05-09T11:50:33.020Z,102336.53
2024-05-09T11:53:02.512Z,102337.66
2024-05-09T11:55:29.458Z,102342.19
2024-05-09T11:57:57.066Z,102330.50
2024-05-09T12:00:33.029Z,102336.47
2024-05-09T12:03:03.347Z,102336.78
2024-05-09T12:05:30.203Z,102331.41
2024-05-09T12:07:56.923Z,102334.13
2024-05-09T12:10:32.086Z,102332.84
2024-05-09T12:13:01.234Z,102330.81
2024-05-09T12:15:28.038Z,102322.50
2024-05-09T12:17:55.976Z,102322.03
2024-05-09T12:20:32.314Z,102325.00
2024-05-09T12:23:03.060Z,102323.94
2024-05-09T12:25:29.790Z,102327.38
2024-05-09T12:27:56.471Z,102327.13
2024-05-09T12:30:32.772Z,102315.59
2024-05-09T12:33:04.526Z,102317.28
2024-05-09T12:35:31.484Z,102321.31
2024-05-09T12:37:58.150Z,102317.06
2024-05-09T12:40:34.208Z,102316.19
2024-05-09T12:43:04.708Z,102308.59
2024-05-09T12:45:31.769Z,102298.63
2024-05-09T12:47:58.833Z,102305.31
2024-05-09T12:50:32.016Z,102297.97
2024-05-09T12:53:01.174Z,102300.44
2024-05-09T12:55:28.746Z,102296.78
2024-05-09T12:57:58.244Z,102302.75
2024-05-09T13:00:31.454Z,102293.25
2024-05-09T13:03:01.158Z,102294.84
2024-05-09T13:05:28.433Z,102285.03
2024-05-09T13:07:55.506Z,102283.97
2024-05-09T13:10:29.109Z,102291.13
2024-05-09T13:12:59.568Z,102286.25
2024-05-09T13:15:26.600Z,102298.53
2024-05-09T13:17:53.454Z,102294.56
2024-05-09T13:20:29.114Z,102288.13
2024-05-09T13:23:01.349Z,102279.50
2024-05-09T13:25:28.099Z,102288.97
2024-05-09T13:27:55.013Z,102284.59
2024-05-09T13:30:29.423Z,102291.94
2024-05-09T13:33:06.595Z,102280.63
2024-05-09T13:35:34.146Z,102281.97
2024-05-09T13:38:01.522Z,102287.53
2024-05-09T13:40:33.478Z,102279.19
2024-05-09T13:43:02.882Z,102282.41
2024-05-09T13:45:29.768Z,102277.44
2024-05-09T13:47:56.750Z,102285.13
2024-05-09T13:50:31.559Z,102281.97
2024-05-09T13:53:02.191Z,102281.09
2024-05-09T13:55:29.078Z,102277.06
2024-05-09T13:57:55.927Z,102278.09
2024-05-09T14:00:37.236Z,102279.50
2024-05-09T14:03:09.794Z,102270.84
2024-05-09T14:05:36.950Z,102269.28
2024-05-09T14:08:03.993Z,102259.41
2024-05-09T14:10:32.006Z,102259.84
2024-05-09T14:13:00.382Z,102255.00
2024-05-09T14:15:27.119Z,102253.63
2024-05-09T14:17:54.417Z,102253.13
2024-05-09T14:20:30.827Z,102251.16
2024-05-09T14:23:01.667Z,102244.06
2024-05-09T14:25:28.730Z,102245.56
2024-05-09T14:27:59.648Z,102239.75
2024-05-09T14:30:34.541Z,102238.38
2024-05-09T14:33:05.034Z,102240.44
2024-05-09T14:35:32.263Z,102238.09
2024-05-09T14:37:59.031Z,102243.78
2024-05-09T14:40:36.394Z,102231.78
2024-05-09T14:43:08.170Z,102236.78
2024-05-09T14:45:35.177Z,102237.38
2024-05-09T14:48:02.476Z,102239.59
2024-05-09T14:50:35.816Z,102229.03
2024-05-09T14:53:06.622Z,102226.16
2024-05-09T14:55:34.843Z,102224.16
2024-05-09T14:58:01.680Z,102231.09
2024-05-09T15:00:33.306Z,102235.13
2024-05-09T15:03:03.193Z,102226.31
2024-05-09T15:05:30.113Z,102227.63
2024-05-09T15:08:20.596Z,102225.16
2024-05-09T15:10:51.438Z,102218.63
2024-05-09T15:13:19.233Z,102218.75
2024-05-09T15:15:46.275Z,102222.41
2024-05-09T15:18:14.250Z,102212.44
2024-05-09T15:20:41.490Z,102213.63
2024-05-09T15:23:08.229Z,102209.97
2024-05-09T15:25:35.211Z,102208.34
2024-05-09T15:28:02.365Z,102205.91
2024-05-09T15:30:32.285Z,102213.28
2024-05-09T15:33:01.408Z,102207.41
2024-05-09T15:35:28.464Z,102210.38
2024-05-09T15:37:55.808Z,102212.47
2024-05-09T15:40:31.653Z,102206.56
2024-05-09T15:43:05.829Z,102213.09
2024-05-09T15:45:32.927Z,102206.03
2024-05-09T15:48:00.027Z,102203.56
2024-05-09T15:50:35.791Z,102209.97
2024-05-09T15:53:06.849Z,102212.44
2024-05-09T15:55:34.707Z,102204.56
2024-05-09T15:58:02.161Z,102205.66
2024-05-09T16:00:36.870Z,102204.09
2024-05-09T16:03:07.515Z,102206.06
2024-05-09T16:05:34.658Z,102196.25
2024-05-09T16:08:01.474Z,102204.53
2024-05-09T16:10:32.667Z,102197.38
2024-05-09T16:13:01.277Z,102191.47
2024-05-09T16:15:28.184Z,102191.84
2024-05-09T16:17:55.390Z,102198.09
2024-05-09T16:20:33.807Z,102191.91
2024-05-09T16:23:05.907Z,102195.50
2024-05-09T16:25:32.623Z,102189.53
2024-05-09T16:27:59.367Z,102199.63
2024-05-09T16:30:32.160Z,102192.91
2024-05-09T16:33:02.678Z,102200.38
2024-05-09T16:35:29.639Z,102197.91
2024-05-09T16:37:56.300Z,102203.47
2024-05-09T16:40:30.326Z,102204.53
2024-05-09T16:43:04.638Z,102204.94
2024-05-09T16:45:31.790Z,102203.06
2024-05-09T16:47:59.292Z,102200.84
2024-05-09T16:50:31.116Z,102206.50
2024-05-09T16:53:00.212Z,102202.31
2024-05-09T16:55:27.346Z,102195.81
2024-05-09T16:57:54.199Z,102197.03
2024-05-09T17:00:31.127Z,102192.81
2024-05-09T17:03:06.647Z,102194.63
2024-05-09T17:05:34.451Z,102189.41
2024-05-09T17:08:01.543Z,102186.88
2024-05-09T17:10:32.943Z,102190.22
2024-05-09T17:13:02.184Z,102183.84
2024-05-09T17:15:29.266Z,102188.31
2024-05-09T17:17:56.064Z,102190.34
2024-05-09T17:20:29.830Z,102186.06
2024-05-09T17:23:02.057Z,102186.28
2024-05-09T17:25:28.837Z,102184.50
2024-05-09T17:27:56.781Z,102193.78
2024-05-09T17:30:32.008Z,102186.78
2024-05-09T17:33:03.997Z,102186.13
2024-05-09T17:35:31.676Z,102184.47
2024-05-09T17:37:58.836Z,102183.66
2024-05-09T17:40:31.545Z,102185.59
2024-05-09T17:43:02.433Z,102184.06
2024-05-09T17:45:29.563Z,102181.44
2024-05-09T17:47:56.408Z,102181.56
2024-05-09T17:50:30.318Z,102184.47
2024-05-09T17:53:01.878Z,102172.28
2024-05-09T17:55:28.840Z,102182.94
2024-05-09T17:57:55.887Z,102179.50
2024-05-09T18:00:32.874Z,102181.41
2024-05-09T18:03:05.488Z,102185.31
2024-05-09T18:05:32.625Z,102188.22
2024-05-09T18:07:59.612Z,102186.72
2024-05-09T18:10:33.266Z,102193.16
2024-05-09T18:13:04.206Z,102199.53
2024-05-09T18:15:30.972Z,102190.75
2024-05-09T18:17:58.115Z,102202.56
2024-05-09T18:20:36.039Z,102201.91
2024-05-09T18:23:08.348Z,102203.84
2024-05-09T18:25:35.126Z,102195.88
2024-05-09T18:28:02.624Z,102192.41
2024-05-09T18:30:34.706Z,102195.94
2024-05-09T18:33:03.932Z,102190.72
2024-05-09T18:35:30.967Z,102194.50
2024-05-09T18:37:57.668Z,102184.03
2024-05-09T18:40:32.559Z,102194.78
2024-05-09T18:43:02.914Z,102199.47
2024-05-09T18:45:29.872Z,102195.16
2024-05-09T18:47:56.681Z,102193.59
2024-05-09T18:50:31.967Z,102192.75
2024-05-09T18:56:34.483Z,102203.91
2024-05-09T18:59:01.330Z,102213.84
2024-05-09T19:01:28.024Z,102207.78
2024-05-09T19:03:55.328Z,102210.69
2024-05-09T19:06:24.612Z,102205.41
2024-05-09T19:08:51.475Z,102208.28
2024-05-09T19:11:18.255Z,102209.34
2024-05-09T19:13:45.223Z,102208.59
2024-05-09T19:16:12.050Z,102217.59
2024-05-09T19:18:39.025Z,102211.38
2024-05-09T19:21:06.481Z,102209.75
2024-05-09T19:23:38.069Z,102206.28
2024-05-09T19:26:05.461Z,102208.16
2024-05-09T19:28:32.267Z,102208.28
2024-05-09T19:30:59.152Z,102211.91
2024-05-09T19:33:25.864Z,102212.84
2024-05-09T19:35:52.715Z,102212.88
2024-05-09T19:38:19.554Z,102213.81
2024-05-09T19:40:46.514Z,102214.72
2024-05-09T19:43:13.501Z,102206.75
2024-05-09T19:45:40.354Z,102209.44
2024-05-09T19:48:07.785Z,102209.44
2024-05-09T19:50:41.515Z,102208.59
2024-05-09T19:53:11.587Z,102210.44
2024-05-09T19:55:38.659Z,102202.47
2024-05-09T19:58:06.555Z,102199.00
2024-05-09T20:00:36.660Z,102199.03
2024-05-09T20:03:05.821Z,102199.00
2024-05-09T20:05:33.275Z,102197.31
2024-05-09T20:08:00.274Z,102195.69
2024-05-09T20:10:32.093Z,102201.13
2024-05-09T20:13:01.091Z,102198.47
2024-05-09T20:15:27.861Z,102198.59
2024-05-09T20:17:54.965Z,102206.72
2024-05-09T20:20:32.458Z,102208.56
2024-05-09T20:23:04.339Z,102206.78
2024-05-09T20:25:31.047Z,102207.72
2024-05-09T20:27:57.818Z,102201.53
2024-05-09T20:30:31.372Z,102204.25
2024-05-09T20:33:00.466Z,102203.31
2024-05-09T20:35:29.523Z,102197.94
2024-05-09T20:37:56.165Z,102207.75
2024-05-09T20:40:29.145Z,102203.34
2024-05-09T20:43:00.272Z,102204.38
2024-05-09T20:45:27.155Z,102201.81
2024-05-09T20:47:54.178Z,102205.44
2024-05-09T20:50:28.865Z,102200.91
2024-05-09T20:53:03.263Z,102205.25
2024-05-09T20:55:30.271Z,102208.84
2024-05-09T20:57:57.465Z,102208.81
2024-05-09T21:00:33.879Z,102211.44
2024-05-09T21:03:06.327Z,102206.00
2024-05-09T21:05:33.961Z,102196.97
2024-05-09T21:08:00.871Z,102197.81
2024-05-09T21:10:32.098Z,102196.06
2024-05-09T21:13:00.383Z,102199.78
2024-05-09T21:15:27.084Z,102202.56
2024-05-09T21:17:53.799Z,102210.59
2024-05-09T21:20:24.239Z,102199.94
2024-05-09T21:22:57.504Z,102210.66
2024-05-09T21:25:24.301Z,102219.63
2024-05-09T21:27:51.103Z,102213.34
2024-05-09T21:30:26.810Z,102215.28
2024-05-09T21:32:59.362Z,102217.97
2024-05-09T21:35:26.162Z,102216.22
2024-05-09T21:37:52.858Z,102222.47
2024-05-09T21:40:27.112Z,102219.06
2024-05-09T21:43:01.026Z,102220.84
2024-05-09T21:45:27.927Z,102227.16
2024-05-09T21:47:54.789Z,102215.63
2024-05-09T21:50:28.103Z,102210.31
2024-05-09T21:52:59.259Z,102205.03
2024-05-09T21:55:26.050Z,102207.75
2024-05-09T21:57:52.790Z,102201.50
2024-05-09T22:00:28.855Z,102203.31
2024-05-09T22:03:02.275Z,102197.09
2024-05-09T22:05:29.311Z,102197.13
2024-05-09T22:07:56.400Z,102194.50
2024-05-09T22:10:27.102Z,102188.25
2024-05-09T22:13:00.056Z,102181.91
2024-05-09T22:15:26.828Z,102180.09
2024-05-09T22:17:53.829Z,102176.53
2024-05-09T22:20:28.803Z,102177.59
2024-05-09T22:23:02.682Z,102170.41
2024-05-09T22:25:31.010Z,102167.81
2024-05-09T22:27:58.692Z,102167.81
2024-05-09T22:30:34.080Z,102167.84
2024-05-09T22:33:05.464Z,102156.41
2024-05-09T22:35:32.352Z,102165.50
2024-05-09T22:37:59.089Z,102168.16
2024-05-09T22:40:37.929Z,102161.94
2024-05-09T22:43:12.738Z,102162.06
2024-05-09T22:45:39.803Z,102170.09
2024-05-09T22:48:07.988Z,102164.75
2024-05-09T22:50:34.954Z,102174.72
2024-05-09T22:53:01.694Z,102164.97
2024-05-09T22:55:28.474Z,102168.59
2024-05-09T22:57:55.284Z,102171.38
2024-05-09T23:00:30.457Z,102175.03
2024-05-09T23:03:02.026Z,102175.13
2024-05-09T23:05:29.252Z,102178.72
2024-05-09T23:07:56.252Z,102174.34
2024-05-09T23:10:31.021Z,102171.69
2024-05-09T23:13:02.363Z,102172.50
2024-05-09T23:15:29.250Z,102172.31
2024-05-09T23:17:56.092Z,102169.53
2024-05-09T23:20:33.263Z,102170.31
2024-05-09T23:23:05.286Z,102177.53
2024-05-09T23:25:32.427Z,102167.81
2024-05-09T23:27:59.175Z,102162.56
2024-05-09T23:30:34.085Z,102175.16
2024-05-09T23:33:05.406Z,102163.47
2024-05-09T23:35:32.210Z,102171.41
2024-05-09T23:37:58.866Z,102166.97
2024-05-09T23:40:36.752Z,102159.94
2024-05-09T23:43:06.921Z,102157.28
2024-05-09T23:45:33.915Z,102160.88
2024-05-09T23:48:01.074Z,102151.88
2024-05-09T23:50:34.388Z,102157.97
2024-05-09T23:53:04.594Z,102149.06
2024-05-09T23:55:31.927Z,102147.44
2024-05-09T23:57:59.107Z,102155.56
